createdAt,value
2018-12-07T00:00:07.895Z,9.40
2018-12-07T00:01:04.855Z,9.40
2018-12-07T00:02:07.486Z,9.50
2018-12-07T00:03:07.997Z,9.40
2018-12-07T00:04:07.609Z,9.40
2018-12-07T00:05:08.141Z,9.40
2018-12-07T00:06:07.642Z,9.40
2018-12-07T00:07:05.612Z,9.40
2018-12-07T00:08:09.774Z,9.40
2018-12-07T00:09:07.266Z,9.40
2018-12-07T00:10:05.194Z,9.40
2018-12-07T00:11:05.295Z,9.40
2018-12-07T00:12:05.420Z,9.40
2018-12-07T00:13:05.480Z,9.40
2018-12-07T00:14:08.183Z,9.40
2018-12-07T00:15:07.774Z,9.40
2018-12-07T00:16:07.286Z,9.40
2018-12-07T00:17:05.272Z,9.40
2018-12-07T00:18:10.622Z,9.40
2018-12-07T00:19:05.634Z,9.40
2018-12-07T00:20:04.761Z,9.40
2018-12-07T00:21:08.284Z,9.40
2018-12-07T00:22:05.276Z,9.40
2018-12-07T00:23:07.902Z,9.40
2018-12-07T00:24:05.040Z,9.40
2018-12-07T00:25:05.213Z,9.40
2018-12-07T00:26:05.337Z,9.40
2018-12-07T00:27:05.375Z,9.40
2018-12-07T00:28:05.607Z,9.40
2018-12-07T00:29:04.929Z,9.50
2018-12-07T00:30:05.154Z,9.50
2018-12-07T00:31:05.247Z,9.50
2018-12-07T00:32:07.985Z,9.50
2018-12-07T00:33:04.913Z,9.50
2018-12-07T00:34:05.031Z,9.50
2018-12-07T00:35:05.078Z,9.50
2018-12-07T00:36:07.696Z,9.50
2018-12-07T00:37:05.632Z,9.50
2018-12-07T00:38:07.366Z,9.50
2018-12-07T00:39:05.412Z,9.60
2018-12-07T00:40:05.549Z,9.60
2018-12-07T00:41:08.215Z,9.50
2018-12-07T00:42:05.135Z,9.60
2018-12-07T00:43:05.271Z,9.60
2018-12-07T00:44:05.276Z,9.60
2018-12-07T00:45:04.930Z,9.60
2018-12-07T00:46:05.238Z,9.60
2018-12-07T00:47:05.371Z,9.60
2018-12-07T00:48:05.539Z,9.60
2018-12-07T00:49:08.255Z,9.60
2018-12-07T00:50:05.171Z,9.60
2018-12-07T00:51:10.315Z,9.60
2018-12-07T00:52:05.322Z,9.70
2018-12-07T00:53:05.484Z,9.70
2018-12-07T00:54:05.610Z,9.70
2018-12-07T00:55:05.686Z,9.70
2018-12-07T00:56:04.742Z,9.70
2018-12-07T00:57:07.325Z,9.70
2018-12-07T00:58:05.278Z,9.70
2018-12-07T00:59:08.187Z,9.70
2018-12-07T01:00:07.610Z,9.70
2018-12-07T01:01:08.187Z,9.70
2018-12-07T01:02:05.117Z,9.70
2018-12-07T01:03:07.851Z,9.70
2018-12-07T01:04:07.362Z,9.70
2018-12-07T01:05:05.321Z,9.70
2018-12-07T01:06:05.407Z,9.70
2018-12-07T01:07:05.607Z,9.70
2018-12-07T01:08:04.901Z,9.70
2018-12-07T01:09:07.834Z,9.70
2018-12-07T01:10:04.696Z,9.70
2018-12-07T01:11:04.800Z,9.70
2018-12-07T01:12:15.760Z,9.70
2018-12-07T01:13:04.679Z,9.70
2018-12-07T01:14:04.792Z,9.70
2018-12-07T01:15:07.409Z,9.80
2018-12-07T01:16:05.490Z,9.70
2018-12-07T01:17:08.376Z,9.70
2018-12-07T01:18:07.979Z,9.70
2018-12-07T01:19:07.516Z,9.70
2018-12-07T01:20:08.000Z,9.80
2018-12-07T01:21:04.975Z,9.70
2018-12-07T01:22:05.134Z,9.70
2018-12-07T01:23:05.307Z,9.70
2018-12-07T01:24:07.996Z,9.70
2018-12-07T01:25:04.914Z,9.80
2018-12-07T01:26:04.927Z,9.70
2018-12-07T01:27:05.101Z,9.80
2018-12-07T01:28:05.183Z,9.70
2018-12-07T01:29:05.531Z,9.80
2018-12-07T01:30:05.582Z,9.80
2018-12-07T01:31:05.720Z,9.80
2018-12-07T01:32:04.869Z,9.70
2018-12-07T01:33:07.584Z,9.70
2018-12-07T01:34:05.711Z,9.80
2018-12-07T01:35:07.518Z,9.80
2018-12-07T01:36:05.594Z,9.80
2018-12-07T01:37:04.798Z,9.80
2018-12-07T01:38:04.955Z,9.80
2018-12-07T01:39:05.052Z,9.80
2018-12-07T01:40:05.265Z,9.90
2018-12-07T01:41:05.458Z,9.90
2018-12-07T01:42:08.142Z,9.90
2018-12-07T01:43:07.579Z,9.90
2018-12-07T01:44:05.559Z,9.80
2018-12-07T01:45:08.205Z,9.90
2018-12-07T01:46:05.132Z,9.90
2018-12-07T01:47:07.797Z,9.90
2018-12-07T01:48:04.864Z,9.90
2018-12-07T01:49:05.040Z,9.90
2018-12-07T01:50:05.123Z,9.90
2018-12-07T01:51:05.138Z,9.90
2018-12-07T01:52:07.805Z,10.00
2018-12-07T01:53:04.748Z,9.90
2018-12-07T01:54:04.928Z,10.00
2018-12-07T01:55:07.814Z,10.00
2018-12-07T01:56:04.826Z,10.00
2018-12-07T01:57:04.950Z,10.00
2018-12-07T01:58:04.987Z,10.00
2018-12-07T01:59:05.215Z,10.00
2018-12-07T02:00:07.915Z,10.10
2018-12-07T02:01:04.969Z,10.00
2018-12-07T02:02:05.063Z,10.00
2018-12-07T02:03:05.195Z,10.00
2018-12-07T02:04:07.881Z,10.10
2018-12-07T02:05:07.467Z,10.10
2018-12-07T02:06:05.480Z,10.10
2018-12-07T02:07:08.106Z,10.10
2018-12-07T02:08:07.675Z,10.10
2018-12-07T02:09:05.725Z,10.10
2018-12-07T02:10:07.519Z,10.10
2018-12-07T02:11:07.981Z,10.10
2018-12-07T02:12:05.058Z,10.10
2018-12-07T02:13:10.380Z,10.10
2018-12-07T02:14:08.007Z,10.20
2018-12-07T02:15:04.895Z,10.20
2018-12-07T02:16:07.704Z,10.20
2018-12-07T02:17:08.194Z,10.20
2018-12-07T02:18:05.243Z,10.20
2018-12-07T02:19:05.508Z,10.20
2018-12-07T02:20:04.760Z,10.20
2018-12-07T02:21:04.888Z,10.20
2018-12-07T02:22:07.430Z,10.20
2018-12-07T02:23:05.338Z,10.20
2018-12-07T02:24:07.935Z,10.20
2018-12-07T02:25:07.385Z,10.20
2018-12-07T02:26:05.398Z,10.20
2018-12-07T02:27:05.581Z,10.20
2018-12-07T02:28:04.672Z,10.20
2018-12-07T02:29:05.315Z,10.20
2018-12-07T02:30:05.385Z,10.20
2018-12-07T02:31:05.428Z,10.30
2018-12-07T02:32:08.086Z,10.20
2018-12-07T02:33:05.257Z,10.20
2018-12-07T02:34:05.353Z,10.20
2018-12-07T02:35:13.103Z,10.30
2018-12-07T02:36:07.687Z,10.30
2018-12-07T02:37:08.078Z,10.30
2018-12-07T02:38:05.343Z,10.30
2018-12-07T02:39:10.543Z,10.30
2018-12-07T02:40:08.065Z,10.30
2018-12-07T02:41:04.932Z,10.30
2018-12-07T02:42:07.536Z,10.30
2018-12-07T02:43:05.426Z,10.30
2018-12-07T02:44:05.474Z,10.30
2018-12-07T02:45:08.094Z,10.30
2018-12-07T02:46:05.019Z,10.30
2018-12-07T02:47:05.094Z,10.30
2018-12-07T02:48:05.215Z,10.30
2018-12-07T02:49:04.747Z,10.30
2018-12-07T02:50:04.824Z,10.30
2018-12-07T02:51:04.907Z,10.30
2018-12-07T02:52:07.539Z,10.40
2018-12-07T02:53:05.499Z,10.40
2018-12-07T02:54:08.101Z,10.40
2018-12-07T02:55:07.652Z,10.40
2018-12-07T02:56:08.152Z,10.40
2018-12-07T02:57:05.243Z,10.40
2018-12-07T02:58:07.985Z,10.40
2018-12-07T02:59:04.921Z,10.40
2018-12-07T03:00:12.699Z,10.40
2018-12-07T03:01:08.320Z,10.40
2018-12-07T03:02:07.797Z,10.40
2018-12-07T03:03:07.312Z,10.40
2018-12-07T03:04:05.237Z,10.40
2018-12-07T03:05:08.002Z,10.40
2018-12-07T03:06:05.039Z,10.40
2018-12-07T03:07:08.169Z,10.40
2018-12-07T03:08:05.227Z,10.40
2018-12-07T03:09:07.926Z,10.40
2018-12-07T03:10:07.489Z,10.40
2018-12-07T03:11:07.958Z,10.40
2018-12-07T03:12:05.077Z,10.40
2018-12-07T03:13:07.674Z,10.40
2018-12-07T03:14:07.366Z,10.40
2018-12-07T03:15:05.319Z,10.40
2018-12-07T03:16:05.317Z,10.40
2018-12-07T03:17:05.476Z,10.40
2018-12-07T03:18:05.691Z,10.40
2018-12-07T03:19:04.951Z,10.40
2018-12-07T03:20:05.134Z,10.50
2018-12-07T03:21:10.363Z,10.50
2018-12-07T03:22:05.284Z,10.50
2018-12-07T03:23:07.860Z,10.40
2018-12-07T03:24:09.871Z,10.40
2018-12-07T03:25:07.479Z,10.50
2018-12-07T03:26:05.458Z,10.50
2018-12-07T03:27:08.054Z,10.40
2018-12-07T03:28:05.133Z,10.40
2018-12-07T03:29:05.542Z,10.50
2018-12-07T03:30:04.733Z,10.50
2018-12-07T03:31:07.379Z,10.50
2018-12-07T03:32:05.387Z,10.50
2018-12-07T03:33:05.520Z,10.50
2018-12-07T03:34:05.645Z,10.50
2018-12-07T03:35:04.966Z,10.50
2018-12-07T03:36:05.119Z,10.50
2018-12-07T03:37:07.832Z,10.50
2018-12-07T03:38:04.792Z,10.50
2018-12-07T03:39:04.930Z,10.60
2018-12-07T03:40:05.105Z,10.50
2018-12-07T03:41:07.723Z,10.50
2018-12-07T03:42:04.667Z,10.50
2018-12-07T03:43:04.856Z,10.50
2018-12-07T03:44:04.890Z,10.50
2018-12-07T03:45:07.456Z,10.50
2018-12-07T03:46:08.099Z,10.60
2018-12-07T03:47:05.125Z,10.60
2018-12-07T03:48:05.272Z,10.60
2018-12-07T03:49:07.255Z,10.60
2018-12-07T03:50:05.265Z,10.60
2018-12-07T03:51:08.061Z,10.60
2018-12-07T03:52:05.090Z,10.50
2018-12-07T03:53:05.201Z,10.50
2018-12-07T03:54:05.259Z,10.50
2018-12-07T03:55:08.101Z,10.60
2018-12-07T03:56:05.146Z,10.50
2018-12-07T03:57:05.251Z,10.60
2018-12-07T03:58:05.301Z,10.50
2018-12-07T03:59:10.604Z,10.50
2018-12-07T04:00:08.157Z,10.60
2018-12-07T04:01:07.587Z,10.60
2018-12-07T04:02:05.663Z,10.50
2018-12-07T04:03:04.871Z,10.60
2018-12-07T04:04:04.915Z,10.60
2018-12-07T04:05:10.020Z,10.60
2018-12-07T04:06:04.990Z,10.50
2018-12-07T04:07:07.567Z,10.60
2018-12-07T04:08:05.631Z,10.60
2018-12-07T04:09:04.783Z,10.60
2018-12-07T04:10:05.133Z,10.60
2018-12-07T04:11:05.290Z,10.60
2018-12-07T04:12:07.991Z,10.60
2018-12-07T04:13:07.508Z,10.60
2018-12-07T04:14:08.172Z,10.60
2018-12-07T04:15:05.183Z,10.60
2018-12-07T04:16:10.319Z,10.60
2018-12-07T04:17:07.735Z,10.60
2018-12-07T04:18:04.674Z,10.50
2018-12-07T04:19:04.984Z,10.50
2018-12-07T04:20:05.153Z,10.60
2018-12-07T04:21:17.899Z,10.50
2018-12-07T04:22:04.830Z,10.60
2018-12-07T04:23:07.413Z,10.50
2018-12-07T04:24:07.848Z,10.60
2018-12-07T04:25:07.278Z,10.60
2018-12-07T04:26:05.228Z,10.50
2018-12-07T04:27:05.282Z,10.60
2018-12-07T04:28:05.306Z,10.60
2018-12-07T04:29:05.584Z,10.60
2018-12-07T04:30:07.228Z,10.60
2018-12-07T04:31:05.178Z,10.60
2018-12-07T04:32:05.235Z,10.60
2018-12-07T04:33:07.945Z,10.60
2018-12-07T04:34:09.943Z,10.60
2018-12-07T04:35:04.918Z,10.60
2018-12-07T04:36:07.422Z,10.60
2018-12-07T04:37:09.985Z,10.60
2018-12-07T04:38:05.307Z,10.60
2018-12-07T04:39:05.374Z,10.60
2018-12-07T04:40:05.484Z,10.60
2018-12-07T04:41:04.881Z,10.60
2018-12-07T04:42:04.940Z,10.60
2018-12-07T04:43:05.040Z,10.60
2018-12-07T04:44:05.186Z,10.70
2018-12-07T04:45:05.437Z,10.70
2018-12-07T04:46:05.571Z,10.70
2018-12-07T04:47:04.943Z,10.70
2018-12-07T04:48:05.073Z,10.60
2018-12-07T04:49:05.188Z,10.70
2018-12-07T04:50:07.862Z,10.70
2018-12-07T04:51:07.386Z,10.70
2018-12-07T04:52:05.401Z,10.70
2018-12-07T04:53:05.573Z,10.70
2018-12-07T04:54:04.822Z,10.70
2018-12-07T04:55:07.522Z,10.70
2018-12-07T04:56:08.070Z,10.70
2018-12-07T04:57:04.964Z,10.70
2018-12-07T04:58:05.136Z,10.70
2018-12-07T04:59:07.767Z,10.70
2018-12-07T05:00:07.308Z,10.70
2018-12-07T05:01:05.321Z,10.80
2018-12-07T05:02:05.624Z,10.70
2018-12-07T05:03:07.379Z,10.70
2018-12-07T05:04:05.431Z,10.70
2018-12-07T05:05:07.975Z,10.70
2018-12-07T05:06:07.489Z,10.70
2018-12-07T05:07:07.976Z,10.70
2018-12-07T05:08:07.415Z,10.80
2018-12-07T05:09:07.849Z,10.70
2018-12-07T05:10:04.797Z,10.70
2018-12-07T05:11:04.896Z,10.70
2018-12-07T05:12:05.235Z,10.80
2018-12-07T05:13:05.383Z,10.80
2018-12-07T05:14:05.467Z,10.80
2018-12-07T05:15:05.480Z,10.80
2018-12-07T05:16:05.579Z,10.80
2018-12-07T05:17:04.743Z,10.80
2018-12-07T05:18:04.885Z,10.80
2018-12-07T05:19:07.484Z,10.80
2018-12-07T05:20:05.381Z,10.80
2018-12-07T05:21:05.639Z,10.80
2018-12-07T05:22:07.413Z,10.70
2018-12-07T05:23:05.347Z,10.80
2018-12-07T05:24:05.509Z,10.80
2018-12-07T05:25:06.088Z,10.80
2018-12-07T05:26:05.163Z,10.80
2018-12-07T05:27:07.760Z,10.80
2018-12-07T05:28:04.851Z,10.80
2018-12-07T05:29:05.317Z,10.80
2018-12-07T05:30:05.497Z,10.80
2018-12-07T05:31:08.360Z,10.80
2018-12-07T05:32:07.825Z,10.80
2018-12-07T05:33:04.840Z,10.70
2018-12-07T05:34:07.555Z,10.80
2018-12-07T05:35:08.053Z,10.80
2018-12-07T05:36:05.028Z,10.80
2018-12-07T05:37:05.222Z,10.80
2018-12-07T05:38:05.415Z,10.80
2018-12-07T05:39:04.947Z,10.70
2018-12-07T05:40:05.043Z,10.80
2018-12-07T05:41:05.176Z,10.80
2018-12-07T05:42:05.307Z,10.80
2018-12-07T05:43:05.466Z,10.80
2018-12-07T05:44:05.536Z,10.80
2018-12-07T05:45:05.696Z,10.80
2018-12-07T05:46:04.766Z,10.80
2018-12-07T05:47:07.495Z,10.80
2018-12-07T05:48:05.419Z,10.80
2018-12-07T05:49:05.144Z,10.80
2018-12-07T05:50:05.242Z,10.80
2018-12-07T05:51:05.461Z,10.80
2018-12-07T05:52:05.646Z,10.80
2018-12-07T05:53:04.796Z,10.80
2018-12-07T05:54:07.462Z,10.80
2018-12-07T05:55:08.060Z,10.80
2018-12-07T05:56:05.242Z,10.80
2018-12-07T05:57:08.004Z,10.80
2018-12-07T05:58:07.593Z,10.80
2018-12-07T05:59:05.568Z,10.80
2018-12-07T06:00:07.421Z,10.80
2018-12-07T06:01:07.863Z,10.80
2018-12-07T06:02:07.441Z,10.80
2018-12-07T06:03:08.006Z,10.80
2018-12-07T06:04:05.091Z,10.80
2018-12-07T06:07:05.818Z,10.80
2018-12-07T06:08:05.219Z,10.80
2018-12-07T06:09:05.578Z,10.80
2018-12-07T06:10:04.748Z,10.80
2018-12-07T06:11:04.851Z,10.80
2018-12-07T06:12:04.931Z,10.80
2018-12-07T06:13:07.564Z,10.80
2018-12-07T06:14:05.635Z,10.80
2018-12-07T06:15:07.511Z,10.80
2018-12-07T06:16:05.466Z,10.80
2018-12-07T06:17:08.190Z,10.80
2018-12-07T06:18:05.447Z,10.80
2018-12-07T06:19:05.497Z,10.80
2018-12-07T06:20:08.142Z,10.80
2018-12-07T06:21:05.056Z,10.90
2018-12-07T06:22:07.959Z,10.80
2018-12-07T06:23:04.986Z,10.80
2018-12-07T06:24:05.046Z,10.80
2018-12-07T06:25:05.195Z,10.80
2018-12-07T06:26:07.948Z,10.80
2018-12-07T06:27:04.926Z,10.80
2018-12-07T06:28:07.683Z,10.90
2018-12-07T06:29:08.113Z,10.80
2018-12-07T06:30:05.082Z,10.80
2018-12-07T06:31:07.738Z,10.80
2018-12-07T06:32:07.280Z,10.90
2018-12-07T06:33:05.254Z,10.80
2018-12-07T06:34:07.997Z,10.80
2018-12-07T06:35:05.014Z,10.80
2018-12-07T06:36:05.115Z,10.80
2018-12-07T06:37:05.330Z,10.80
2018-12-07T06:38:05.510Z,10.80
2018-12-07T06:39:05.666Z,10.80
2018-12-07T06:40:04.781Z,10.80
2018-12-07T06:41:07.408Z,10.80
2018-12-07T06:42:05.369Z,10.80
2018-12-07T06:43:05.492Z,10.80
2018-12-07T06:44:08.182Z,10.80
2018-12-07T06:45:07.662Z,10.80
2018-12-07T06:46:05.609Z,10.80
2018-12-07T06:47:04.710Z,10.90
2018-12-07T06:48:04.723Z,10.80
2018-12-07T06:49:05.227Z,10.80
2018-12-07T06:50:07.840Z,10.80
2018-12-07T06:51:09.859Z,10.80
2018-12-07T06:52:05.051Z,10.80
2018-12-07T06:53:05.345Z,10.80
2018-12-07T06:54:05.599Z,10.80
2018-12-07T06:55:07.267Z,10.80
2018-12-07T06:56:07.787Z,10.90
2018-12-07T06:57:07.337Z,10.90
2018-12-07T06:58:07.850Z,10.80
2018-12-07T06:59:04.917Z,10.80
2018-12-07T07:00:05.037Z,10.80
2018-12-07T07:01:07.610Z,10.80
2018-12-07T07:02:05.638Z,10.80
2018-12-07T07:03:04.916Z,10.80
2018-12-07T07:04:05.156Z,10.80
2018-12-07T07:05:05.422Z,10.90
2018-12-07T07:06:08.143Z,10.90
2018-12-07T07:07:05.324Z,10.90
2018-12-07T07:08:10.619Z,10.90
2018-12-07T07:09:08.082Z,10.90
2018-12-07T07:10:05.038Z,10.90
2018-12-07T07:11:05.128Z,10.90
2018-12-07T07:12:05.285Z,10.90
2018-12-07T07:13:05.345Z,10.90
2018-12-07T07:14:10.541Z,10.90
2018-12-07T07:15:08.113Z,10.90
2018-12-07T07:16:07.759Z,10.90
2018-12-07T07:17:09.812Z,10.90
2018-12-07T07:18:04.765Z,10.90
2018-12-07T07:19:04.993Z,10.90
2018-12-07T07:20:07.718Z,10.90
2018-12-07T07:21:04.764Z,10.90
2018-12-07T07:22:04.906Z,10.90
2018-12-07T07:23:04.972Z,10.90
2018-12-07T07:24:05.032Z,10.90
2018-12-07T07:25:05.229Z,10.90
2018-12-07T07:26:07.955Z,10.90
2018-12-07T07:27:04.934Z,10.90
2018-12-07T07:28:12.648Z,10.90
2018-12-07T07:29:04.860Z,10.90
2018-12-07T07:30:04.995Z,10.80
2018-12-07T07:31:05.134Z,10.90
2018-12-07T07:32:05.286Z,10.90
2018-12-07T07:33:08.014Z,10.90
2018-12-07T07:34:07.612Z,10.90
2018-12-07T07:35:08.085Z,10.80
2018-12-07T07:36:04.988Z,10.90
2018-12-07T07:37:05.041Z,10.80
2018-12-07T07:38:07.568Z,10.80
2018-12-07T07:39:05.563Z,10.90
2018-12-07T07:40:08.216Z,10.90
2018-12-07T07:41:07.687Z,10.80
2018-12-07T07:42:07.290Z,10.90
2018-12-07T07:43:10.230Z,10.80
2018-12-07T07:44:05.251Z,10.80
2018-12-07T07:45:07.881Z,10.80
2018-12-07T07:46:04.905Z,10.80
2018-12-07T07:47:07.717Z,10.80
2018-12-07T07:48:04.819Z,10.80
2018-12-07T07:49:07.511Z,10.80
2018-12-07T07:50:07.955Z,10.80
2018-12-07T07:51:04.919Z,10.80
2018-12-07T07:52:07.668Z,10.80
2018-12-07T07:53:05.638Z,10.80
2018-12-07T07:54:07.210Z,10.80
2018-12-07T07:55:07.649Z,10.80
2018-12-07T07:56:15.092Z,10.80
2018-12-07T07:57:04.731Z,10.80
2018-12-07T07:58:04.867Z,10.80
2018-12-07T07:59:07.536Z,10.80
2018-12-07T08:00:08.038Z,10.80
2018-12-07T08:01:07.645Z,10.80
2018-12-07T08:02:05.673Z,10.80
2018-12-07T08:03:04.797Z,10.80
2018-12-07T08:04:07.396Z,10.80
2018-12-07T08:05:05.488Z,10.80
2018-12-07T08:06:04.722Z,10.80
2018-12-07T08:07:04.825Z,10.80
2018-12-07T08:08:04.859Z,10.80
2018-12-07T08:09:04.959Z,10.80
2018-12-07T08:10:10.142Z,10.80
2018-12-07T08:11:05.100Z,10.80
2018-12-07T08:12:07.731Z,10.80
2018-12-07T08:13:04.735Z,10.80
2018-12-07T08:14:10.004Z,10.80
2018-12-07T08:15:07.560Z,10.80
2018-12-07T08:16:08.182Z,10.80
2018-12-07T08:17:05.339Z,10.80
2018-12-07T08:18:05.408Z,10.80
2018-12-07T08:19:08.229Z,10.80
2018-12-07T08:20:05.339Z,10.80
2018-12-07T08:21:05.400Z,10.80
2018-12-07T08:22:05.622Z,10.80
2018-12-07T08:23:04.713Z,10.80
2018-12-07T08:24:04.765Z,10.80
2018-12-07T08:25:04.854Z,10.80
2018-12-07T08:26:04.843Z,10.80
2018-12-07T08:27:07.424Z,10.80
2018-12-07T08:28:05.399Z,10.80
2018-12-07T08:29:08.011Z,10.80
2018-12-07T08:30:12.593Z,10.80
2018-12-07T08:31:08.068Z,10.80
2018-12-07T08:32:04.963Z,10.80
2018-12-07T08:33:05.066Z,10.80
2018-12-07T08:34:07.812Z,10.90
2018-12-07T08:35:07.416Z,10.80
2018-12-07T08:36:05.359Z,10.80
2018-12-07T08:37:08.058Z,10.90
2018-12-07T08:38:05.007Z,10.80
2018-12-07T08:39:05.053Z,10.80
2018-12-07T08:40:08.046Z,10.90
2018-12-07T08:41:05.018Z,10.90
2018-12-07T08:42:06.831Z,10.90
2018-12-07T08:43:05.295Z,10.90
2018-12-07T08:44:05.519Z,10.90
2018-12-07T08:45:05.661Z,10.90
2018-12-07T08:46:07.277Z,10.90
2018-12-07T08:47:05.148Z,10.90
2018-12-07T08:48:07.736Z,10.90
2018-12-07T08:49:05.625Z,11.00
2018-12-07T08:50:04.726Z,10.90
2018-12-07T08:51:04.976Z,10.90
2018-12-07T08:52:05.198Z,10.90
2018-12-07T08:53:05.462Z,10.90
2018-12-07T08:54:08.245Z,10.90
2018-12-07T08:55:05.148Z,10.90
2018-12-07T08:56:07.718Z,10.90
2018-12-07T08:57:04.744Z,10.90
2018-12-07T08:58:07.360Z,10.90
2018-12-07T08:59:05.222Z,10.90
2018-12-07T09:00:07.887Z,11.00
2018-12-07T09:01:04.832Z,10.90
2018-12-07T09:02:07.400Z,11.00
2018-12-07T09:03:05.430Z,10.90
2018-12-07T09:04:08.101Z,11.00
2018-12-07T09:05:05.067Z,10.90
2018-12-07T09:06:07.733Z,10.90
2018-12-07T09:07:08.325Z,10.90
2018-12-07T09:08:14.894Z,10.90
2018-12-07T09:09:12.483Z,10.90
2018-12-07T09:10:05.329Z,10.90
2018-12-07T09:11:07.993Z,11.00
2018-12-07T09:12:04.937Z,10.90
2018-12-07T09:13:04.985Z,10.90
2018-12-07T09:14:05.098Z,10.90
2018-12-07T09:15:05.290Z,11.00
2018-12-07T09:16:05.411Z,10.90
2018-12-07T09:17:08.119Z,10.90
2018-12-07T09:18:05.084Z,11.00
2018-12-07T09:19:07.704Z,10.90
2018-12-07T09:20:08.258Z,11.00
2018-12-07T09:21:05.209Z,11.00
2018-12-07T09:22:07.917Z,11.00
2018-12-07T09:23:07.489Z,11.00
2018-12-07T09:24:05.372Z,11.00
2018-12-07T09:25:07.902Z,11.00
2018-12-07T09:26:07.391Z,11.00
2018-12-07T09:27:05.360Z,11.00
2018-12-07T09:28:05.449Z,11.00
2018-12-07T09:29:07.507Z,11.00
2018-12-07T09:30:05.337Z,11.00
2018-12-07T09:31:05.587Z,11.00
2018-12-07T09:32:07.232Z,11.00
2018-12-07T09:33:07.764Z,11.00
2018-12-07T09:34:05.760Z,11.00
2018-12-07T09:35:04.901Z,11.00
2018-12-07T09:36:07.718Z,11.00
2018-12-07T09:37:07.349Z,11.00
2018-12-07T09:38:05.273Z,11.00
2018-12-07T09:39:04.873Z,11.00
2018-12-07T09:40:04.955Z,11.00
2018-12-07T09:41:10.145Z,11.00
2018-12-07T09:42:07.734Z,11.00
2018-12-07T09:43:07.416Z,11.00
2018-12-07T09:44:05.531Z,11.00
2018-12-07T09:45:08.346Z,11.00
2018-12-07T09:46:05.365Z,11.00
2018-12-07T09:47:08.058Z,11.00
2018-12-07T09:48:05.083Z,11.00
2018-12-07T09:49:05.272Z,11.00
2018-12-07T09:50:07.920Z,11.00
2018-12-07T09:51:07.396Z,11.00
2018-12-07T09:52:05.386Z,11.00
2018-12-07T09:53:05.617Z,11.00
2018-12-07T09:54:04.819Z,11.00
2018-12-07T09:55:05.099Z,11.00
2018-12-07T09:56:10.209Z,11.00
2018-12-07T09:57:10.248Z,11.00
2018-12-07T09:58:10.220Z,11.00
2018-12-07T09:59:07.781Z,11.00
2018-12-07T10:00:07.324Z,11.00
2018-12-07T10:01:07.739Z,11.00
2018-12-07T10:02:08.240Z,11.00
2018-12-07T10:03:07.711Z,11.00
2018-12-07T10:04:08.154Z,11.10
2018-12-07T10:05:12.840Z,11.10
2018-12-07T10:06:04.915Z,11.10
2018-12-07T10:07:05.107Z,11.00
2018-12-07T10:08:10.300Z,11.10
2018-12-07T10:09:05.421Z,11.10
2018-12-07T10:10:05.003Z,11.10
2018-12-07T10:11:07.642Z,11.10
2018-12-07T10:12:05.708Z,11.10
2018-12-07T10:13:08.044Z,11.10
2018-12-07T10:14:05.370Z,11.10
2018-12-07T10:15:08.178Z,11.10
2018-12-07T10:16:07.663Z,11.10
2018-12-07T10:17:08.164Z,11.10
2018-12-07T10:18:05.276Z,11.10
2018-12-07T10:19:08.051Z,11.10
2018-12-07T10:20:05.027Z,11.10
2018-12-07T10:21:07.816Z,11.10
2018-12-07T10:22:04.773Z,11.10
2018-12-07T10:23:04.831Z,11.20
2018-12-07T10:24:04.932Z,11.20
2018-12-07T10:25:07.690Z,11.20
2018-12-07T10:26:08.159Z,11.20
2018-12-07T10:27:07.666Z,11.20
2018-12-07T10:28:05.676Z,11.20
2018-12-07T10:29:05.180Z,11.20
2018-12-07T10:30:07.903Z,11.20
2018-12-07T10:31:07.497Z,11.30
2018-12-07T10:32:05.435Z,11.20
2018-12-07T10:33:08.060Z,11.30
2018-12-07T10:34:07.623Z,11.30
2018-12-07T10:35:05.641Z,11.30
2018-12-07T10:36:04.742Z,11.30
2018-12-07T10:37:04.833Z,11.30
2018-12-07T10:38:07.540Z,11.30
2018-12-07T10:39:05.472Z,11.30
2018-12-07T10:40:05.719Z,11.30
2018-12-07T10:41:07.344Z,11.30
2018-12-07T10:42:05.307Z,11.30
2018-12-07T10:43:05.586Z,11.30
2018-12-07T10:44:07.161Z,11.30
2018-12-07T10:45:05.141Z,11.30
2018-12-07T10:46:07.733Z,11.30
2018-12-07T10:47:04.641Z,11.30
2018-12-07T10:48:04.815Z,11.30
2018-12-07T10:49:05.001Z,11.30
2018-12-07T10:50:05.283Z,11.30
2018-12-07T10:51:08.062Z,11.30
2018-12-07T10:52:07.877Z,11.30
2018-12-07T10:53:04.816Z,11.20
2018-12-07T10:54:04.891Z,11.20
2018-12-07T10:55:05.114Z,11.30
2018-12-07T10:56:07.731Z,11.30
2018-12-07T10:57:04.739Z,11.20
2018-12-07T10:58:04.846Z,11.20
2018-12-07T10:59:07.545Z,11.20
2018-12-07T11:00:08.123Z,11.20
2018-12-07T11:01:05.125Z,11.20
2018-12-07T11:02:07.951Z,11.10
2018-12-07T11:03:07.521Z,11.20
2018-12-07T11:04:08.138Z,11.20
2018-12-07T11:05:05.071Z,11.10
2018-12-07T11:06:07.636Z,11.10
2018-12-07T11:07:08.096Z,11.10
2018-12-07T11:08:07.536Z,11.10
2018-12-07T11:09:05.559Z,11.10
2018-12-07T11:10:04.852Z,11.10
2018-12-07T11:11:05.059Z,11.10
2018-12-07T11:12:07.725Z,11.00
2018-12-07T11:13:07.264Z,11.00
2018-12-07T11:14:05.257Z,11.00
2018-12-07T11:15:08.086Z,11.00
2018-12-07T11:16:05.149Z,11.00
2018-12-07T11:17:05.292Z,11.00
2018-12-07T11:18:07.891Z,11.00
2018-12-07T11:19:04.854Z,11.00
2018-12-07T11:20:05.024Z,10.90
2018-12-07T11:21:05.169Z,10.90
2018-12-07T11:22:05.402Z,11.00
2018-12-07T11:23:05.601Z,10.90
2018-12-07T11:24:04.700Z,10.90
2018-12-07T11:25:07.416Z,10.90
2018-12-07T11:26:05.401Z,10.90
2018-12-07T11:27:05.647Z,10.90
2018-12-07T11:28:07.292Z,10.90
2018-12-07T11:29:07.669Z,10.90
2018-12-07T11:30:09.790Z,10.90
2018-12-07T11:31:04.739Z,10.90
2018-12-07T11:32:04.805Z,10.90
2018-12-07T11:33:04.941Z,10.90
2018-12-07T11:34:07.539Z,10.90
2018-12-07T11:35:08.046Z,10.90
2018-12-07T11:36:08.054Z,10.90
2018-12-07T11:37:05.407Z,10.80
2018-12-07T11:38:05.541Z,10.90
2018-12-07T11:39:04.750Z,10.90
2018-12-07T11:40:04.967Z,10.90
2018-12-07T11:41:07.772Z,10.90
2018-12-07T11:42:04.771Z,10.80
2018-12-07T11:43:07.512Z,10.80
2018-12-07T11:44:05.628Z,10.80
2018-12-07T11:45:04.849Z,10.80
2018-12-07T11:46:07.566Z,10.90
2018-12-07T11:47:08.089Z,10.80
2018-12-07T11:48:04.990Z,10.80
2018-12-07T11:49:05.290Z,10.90
2018-12-07T11:50:07.954Z,10.80
2018-12-07T11:51:05.042Z,10.80
2018-12-07T11:52:05.287Z,10.80
2018-12-07T11:53:05.369Z,10.80
2018-12-07T11:54:07.995Z,10.80
2018-12-07T11:55:04.904Z,10.80
2018-12-07T11:56:04.944Z,10.80
2018-12-07T11:57:05.005Z,10.90
2018-12-07T11:58:05.199Z,10.90
2018-12-07T11:59:05.435Z,10.80
2018-12-07T12:00:05.513Z,10.90
2018-12-07T12:01:07.371Z,10.90
2018-12-07T12:02:08.086Z,10.90
2018-12-07T12:03:07.659Z,10.90
2018-12-07T12:04:04.692Z,10.90
2018-12-07T12:05:05.184Z,10.90
2018-12-07T12:06:08.042Z,10.90
2018-12-07T12:07:05.006Z,10.80
2018-12-07T12:08:05.128Z,10.90
2018-12-07T12:09:05.267Z,10.90
2018-12-07T12:10:05.363Z,10.90
2018-12-07T12:11:05.528Z,10.90
2018-12-07T12:12:10.702Z,10.90
2018-12-07T12:13:05.847Z,10.80
2018-12-07T12:14:04.963Z,10.90
2018-12-07T12:15:07.513Z,10.90
2018-12-07T12:16:06.197Z,10.90
2018-12-07T12:17:10.424Z,10.90
2018-12-07T12:18:08.000Z,10.90
2018-12-07T12:19:10.173Z,10.90
2018-12-07T12:20:05.184Z,10.80
2018-12-07T12:21:05.352Z,10.90
2018-12-07T12:22:05.460Z,10.90
2018-12-07T12:23:05.684Z,10.90
2018-12-07T12:24:04.908Z,10.90
2018-12-07T12:25:05.052Z,10.80
2018-12-07T12:26:05.252Z,10.90
2018-12-07T12:27:05.343Z,10.90
2018-12-07T12:28:09.816Z,10.90
2018-12-07T12:29:04.762Z,10.90
2018-12-07T12:30:12.763Z,10.90
2018-12-07T12:31:07.419Z,10.90
2018-12-07T12:32:07.921Z,10.90
2018-12-07T12:33:05.051Z,10.90
2018-12-07T12:34:05.196Z,10.90
2018-12-07T12:35:05.434Z,10.90
2018-12-07T12:36:08.103Z,11.00
2018-12-07T12:37:05.118Z,10.90
2018-12-07T12:38:05.300Z,11.00
2018-12-07T12:39:07.474Z,11.00
2018-12-07T12:40:05.553Z,11.00
2018-12-07T12:41:07.334Z,11.00
2018-12-07T12:42:10.359Z,11.00
2018-12-07T12:43:07.875Z,11.00
2018-12-07T12:44:04.931Z,11.00
2018-12-07T12:45:05.238Z,11.00
2018-12-07T12:46:05.329Z,11.10
2018-12-07T12:47:05.498Z,11.00
2018-12-07T12:48:09.879Z,11.00
2018-12-07T12:49:04.766Z,11.10
2018-12-07T12:50:04.837Z,11.10
2018-12-07T12:51:07.386Z,11.10
2018-12-07T12:52:05.328Z,11.10
2018-12-07T12:53:07.916Z,11.10
2018-12-07T12:54:09.931Z,11.10
2018-12-07T12:55:07.385Z,11.00
2018-12-07T12:56:05.485Z,11.10
2018-12-07T12:57:08.222Z,11.10
2018-12-07T12:58:05.217Z,11.10